Terminal Aerodrome Forecast
Issued by NWS

Home | Current Version | Previous Version | Graphics & Text | Print | Product List | Glossary On
Versions: 1 2 3 4 5 6 7 8 9 10 11 12 13 14 15 16 17
000
FTUS43 KICT 250703 AAA
TAFCNU
TAF AMD
KCNU 250703Z 2507/2606 18012KT P6SM VCTS BKN015CB
     FM250900 20011KT P6SM VCSH BKN015
     FM251300 27013KT P6SM SCT020 BKN050
     FM251700 29016G22KT P6SM SCT050
     FM260100 02014KT P6SM SCT050=

USA.gov is the U.S. government's official web portal to all federal, state and local government web resources and services.